Terminal Aerodrome Forecast
Issued by NWS Quad Cities IA IL

Home | Current Version | Previous Version | Text Only | Print | Product List | Glossary On
Versions: 1 2 3 4 5 6 7 8 9 10 11 12 13 14 15 16 17 18 19
000
FTUS43 KDVN 241100
TAFDBQ
TAF
KDBQ 241120Z 2412/2512 13013G21KT P6SM -SHRA OVC060
     FM241600 16015G24KT 5SM -SHRA BR OVC035
     FM241900 21011KT 4SM -RA BR OVC025
     FM250300 31012KT 6SM -RA BKN030
     FM250700 32008KT P6SM SKC=

USA.gov is the U.S. government's official web portal to all federal, state and local government web resources and services.